sensor_id;sensor_type;location;lat;lon;timestamp;pressure;altitude;pressure_sealevel;temperature;humidity
14120;BME280;7138;49.246;9.100;2023-09-19T00:00:17;98428.81;;;18.38;73.24
14120;BME280;7138;49.246;9.100;2023-09-19T00:02:46;98421.03;;;18.40;73.23
14120;BME280;7138;49.246;9.100;2023-09-19T00:05:12;98430.34;;;18.44;73.29
14120;BME280;7138;49.246;9.100;2023-09-19T00:07:39;98425.31;;;18.46;73.33
14120;BME280;7138;49.246;9.100;2023-09-19T00:10:07;98420.59;;;18.47;73.32
14120;BME280;7138;49.246;9.100;2023-09-19T00:12:35;98415.88;;;18.47;73.06
14120;BME280;7138;49.246;9.100;2023-09-19T00:15:03;98410.84;;;18.49;72.98
14120;BME280;7138;49.246;9.100;2023-09-19T00:17:29;98427.47;;;18.49;72.78
14120;BME280;7138;49.246;9.100;2023-09-19T00:19:57;98421.91;;;18.49;72.76
14120;BME280;7138;49.246;9.100;2023-09-19T00:22:23;98425.50;;;18.50;72.61
14120;BME280;7138;49.246;9.100;2023-09-19T00:24:51;98425.00;;;18.48;72.69
14120;BME280;7138;49.246;9.100;2023-09-19T00:27:17;98433.31;;;18.48;72.65
14120;BME280;7138;49.246;9.100;2023-09-19T00:29:44;98433.63;;;18.46;72.58
14120;BME280;7138;49.246;9.100;2023-09-19T00:32:11;98433.63;;;18.46;72.61
14120;BME280;7138;49.246;9.100;2023-09-19T00:34:37;98437.84;;;18.44;72.49
14120;BME280;7138;49.246;9.100;2023-09-19T00:37:03;98435.91;;;18.44;72.54
14120;BME280;7138;49.246;9.100;2023-09-19T00:39:29;98440.94;;;18.42;72.72
14120;BME280;7138;49.246;9.100;2023-09-19T00:41:57;98441.53;;;18.39;72.92
14120;BME280;7138;49.246;9.100;2023-09-19T00:44:23;98438.25;;;18.37;72.90
14120;BME280;7138;49.246;9.100;2023-09-19T00:46:49;98446.88;;;18.36;73.02
14120;BME280;7138;49.246;9.100;2023-09-19T00:49:17;98443.91;;;18.32;73.15
14120;BME280;7138;49.246;9.100;2023-09-19T00:51:46;98451.41;;;18.32;73.13
14120;BME280;7138;49.246;9.100;2023-09-19T00:54:13;98445.13;;;18.26;73.24
14120;BME280;7138;49.246;9.100;2023-09-19T00:56:45;98456.63;;;18.19;74.04
14120;BME280;7138;49.246;9.100;2023-09-19T00:59:11;98456.72;;;18.14;74.10
14120;BME280;7138;49.246;9.100;2023-09-19T01:01:38;98462.06;;;18.11;74.34
14120;BME280;7138;49.246;9.100;2023-09-19T01:04:06;98459.06;;;18.07;74.44
14120;BME280;7138;49.246;9.100;2023-09-19T01:06:33;98454.44;;;18.03;74.60
14120;BME280;7138;49.246;9.100;2023-09-19T01:08:59;98462.84;;;17.98;74.65
14120;BME280;7138;49.246;9.100;2023-09-19T01:11:33;98463.84;;;17.88;75.61
14120;BME280;7138;49.246;9.100;2023-09-19T01:14:15;98464.44;;;17.85;75.69
14120;BME280;7138;49.246;9.100;2023-09-19T01:16:57;98473.16;;;17.78;75.75
14120;BME280;7138;49.246;9.100;2023-09-19T01:19:43;98468.00;;;17.72;76.83
14120;BME280;7138;49.246;9.100;2023-09-19T01:22:24;98472.78;;;17.66;77.07
14120;BME280;7138;49.246;9.100;2023-09-19T01:25:49;98475.94;;;17.59;77.51
14120;BME280;7138;49.246;9.100;2023-09-19T01:28:45;98471.88;;;17.52;77.78
14120;BME280;7138;49.246;9.100;2023-09-19T01:31:21;98474.13;;;17.50;77.10
14120;BME280;7138;49.246;9.100;2023-09-19T01:33:58;98478.25;;;17.52;77.97
14120;BME280;7138;49.246;9.100;2023-09-19T01:36:33;98477.72;;;17.50;77.78
14120;BME280;7138;49.246;9.100;2023-09-19T01:39:06;98489.41;;;17.47;77.98
14120;BME280;7138;49.246;9.100;2023-09-19T01:41:56;98479.38;;;17.51;78.24
14120;BME280;7138;49.246;9.100;2023-09-19T01:44:31;98486.56;;;17.52;78.04
14120;BME280;7138;49.246;9.100;2023-09-19T01:47:15;98486.34;;;17.49;77.62
14120;BME280;7138;49.246;9.100;2023-09-19T01:49:55;98487.16;;;17.49;77.16
14120;BME280;7138;49.246;9.100;2023-09-19T01:52:30;98479.47;;;17.46;77.54
14120;BME280;7138;49.246;9.100;2023-09-19T01:55:05;98484.19;;;17.46;77.53
14120;BME280;7138;49.246;9.100;2023-09-19T01:57:42;98488.66;;;17.42;77.79
14120;BME280;7138;49.246;9.100;2023-09-19T02:00:13;98484.50;;;17.44;77.79
14120;BME280;7138;49.246;9.100;2023-09-19T02:02:44;98487.78;;;17.46;77.65
14120;BME280;7138;49.246;9.100;2023-09-19T02:05:12;98488.81;;;17.50;76.87
14120;BME280;7138;49.246;9.100;2023-09-19T02:07:38;98489.16;;;17.44;77.16
14120;BME280;7138;49.246;9.100;2023-09-19T02:10:07;98496.28;;;17.50;76.73
14120;BME280;7138;49.246;9.100;2023-09-19T02:12:33;98496.59;;;17.48;77.06
14120;BME280;7138;49.246;9.100;2023-09-19T02:15:00;98491.25;;;17.52;76.56
14120;BME280;7138;49.246;9.100;2023-09-19T02:17:26;98496.50;;;17.53;76.50
14120;BME280;7138;49.246;9.100;2023-09-19T02:19:54;98503.41;;;17.56;76.76
14120;BME280;7138;49.246;9.100;2023-09-19T02:22:20;98506.69;;;17.58;76.40
14120;BME280;7138;49.246;9.100;2023-09-19T02:24:46;98505.88;;;17.57;76.61
14120;BME280;7138;49.246;9.100;2023-09-19T02:27:13;98504.75;;;17.58;76.62
14120;BME280;7138;49.246;9.100;2023-09-19T02:29:41;98511.09;;;17.59;76.39
14120;BME280;7138;49.246;9.100;2023-09-19T02:32:07;98514.19;;;17.57;76.43
14120;BME280;7138;49.246;9.100;2023-09-19T02:34:35;98520.84;;;17.56;76.93
14120;BME280;7138;49.246;9.100;2023-09-19T02:37:03;98522.03;;;17.50;77.10
14120;BME280;7138;49.246;9.100;2023-09-19T02:39:30;98513.94;;;17.54;76.94
14120;BME280;7138;49.246;9.100;2023-09-19T02:41:56;98517.53;;;17.54;76.89
14120;BME280;7138;49.246;9.100;2023-09-19T02:44:23;98521.41;;;17.53;76.94
14120;BME280;7138;49.246;9.100;2023-09-19T02:46:49;98526.59;;;17.60;76.78
14120;BME280;7138;49.246;9.100;2023-09-19T02:49:15;98532.44;;;17.58;76.89
14120;BME280;7138;49.246;9.100;2023-09-19T02:51:43;98534.22;;;17.49;77.13
14120;BME280;7138;49.246;9.100;2023-09-19T02:54:10;98528.06;;;17.52;77.17
14120;BME280;7138;49.246;9.100;2023-09-19T02:56:37;98533.56;;;17.57;76.55
14120;BME280;7138;49.246;9.100;2023-09-19T02:59:03;98535.94;;;17.64;76.58
14120;BME280;7138;49.246;9.100;2023-09-19T03:01:29;98535.03;;;17.69;76.42
14120;BME280;7138;49.246;9.100;2023-09-19T03:03:55;98538.88;;;17.73;76.28
14120;BME280;7138;49.246;9.100;2023-09-19T03:06:22;98538.56;;;17.74;76.33
14120;BME280;7138;49.246;9.100;2023-09-19T03:08:50;98540.22;;;17.75;76.36
14120;BME280;7138;49.246;9.100;2023-09-19T03:11:18;98544.66;;;17.76;76.24
14120;BME280;7138;49.246;9.100;2023-09-19T03:13:52;98541.34;;;17.74;76.46
14120;BME280;7138;49.246;9.100;2023-09-19T03:16:18;98541.13;;;17.71;76.66
14120;BME280;7138;49.246;9.100;2023-09-19T03:18:44;98548.00;;;17.73;76.43
14120;BME280;7138;49.246;9.100;2023-09-19T03:21:10;98558.72;;;17.80;76.34
14120;BME280;7138;49.246;9.100;2023-09-19T03:23:36;98558.03;;;17.88;76.36
14120;BME280;7138;49.246;9.100;2023-09-19T03:26:04;98565.81;;;17.86;76.34
14120;BME280;7138;49.246;9.100;2023-09-19T03:28:33;98561.31;;;17.90;77.17
14120;BME280;7138;49.246;9.100;2023-09-19T03:31:00;98561.38;;;17.85;76.74
14120;BME280;7138;49.246;9.100;2023-09-19T03:33:27;98562.75;;;17.87;76.97
14120;BME280;7138;49.246;9.100;2023-09-19T03:35:53;98564.72;;;17.87;76.66
14120;BME280;7138;49.246;9.100;2023-09-19T03:38:19;98561.84;;;17.92;76.38
14120;BME280;7138;49.246;9.100;2023-09-19T03:40:45;98565.13;;;17.94;76.80
14120;BME280;7138;49.246;9.100;2023-09-19T03:43:11;98568.06;;;17.84;76.92
14120;BME280;7138;49.246;9.100;2023-09-19T03:45:38;98571.88;;;17.88;76.90
14120;BME280;7138;49.246;9.100;2023-09-19T03:48:08;98561.84;;;17.92;76.74
14120;BME280;7138;49.246;9.100;2023-09-19T03:50:34;98564.81;;;17.96;76.41
14120;BME280;7138;49.246;9.100;2023-09-19T03:53:00;98562.28;;;17.99;76.22
14120;BME280;7138;49.246;9.100;2023-09-19T03:55:26;98567.84;;;17.99;76.26
14120;BME280;7138;49.246;9.100;2023-09-19T03:57:52;98567.22;;;18.02;76.00
14120;BME280;7138;49.246;9.100;2023-09-19T04:00:18;98575.84;;;18.01;75.99
14120;BME280;7138;49.246;9.100;2023-09-19T04:02:48;98578.97;;;17.94;76.36
14120;BME280;7138;49.246;9.100;2023-09-19T04:05:14;98575.06;;;17.95;76.12
14120;BME280;7138;49.246;9.100;2023-09-19T04:07:40;98572.84;;;17.97;76.01
14120;BME280;7138;49.246;9.100;2023-09-19T04:10:06;98570.50;;;18.04;75.83
14120;BME280;7138;49.246;9.100;2023-09-19T04:12:34;98572.44;;;18.04;75.91
14120;BME280;7138;49.246;9.100;2023-09-19T04:15:00;98579.13;;;18.03;75.94
14120;BME280;7138;49.246;9.100;2023-09-19T04:17:26;98575.00;;;18.00;76.03
14120;BME280;7138;49.246;9.100;2023-09-19T04:19:53;98574.09;;;18.05;76.05
14120;BME280;7138;49.246;9.100;2023-09-19T04:22:19;98578.75;;;18.09;75.80
14120;BME280;7138;49.246;9.100;2023-09-19T04:24:45;98582.03;;;18.11;75.74
14120;BME280;7138;49.246;9.100;2023-09-19T04:27:11;98583.06;;;18.15;75.57
14120;BME280;7138;49.246;9.100;2023-09-19T04:29:40;98584.50;;;18.13;75.65
14120;BME280;7138;49.246;9.100;2023-09-19T04:32:07;98581.53;;;18.09;75.70
14120;BME280;7138;49.246;9.100;2023-09-19T04:34:33;98593.19;;;18.06;75.87
14120;BME280;7138;49.246;9.100;2023-09-19T04:37:01;98593.41;;;18.10;75.76
14120;BME280;7138;49.246;9.100;2023-09-19T04:39:29;98595.88;;;18.11;75.73
14120;BME280;7138;49.246;9.100;2023-09-19T04:41:55;98591.47;;;18.10;75.86
14120;BME280;7138;49.246;9.100;2023-09-19T04:44:21;98601.44;;;18.11;75.96
14120;BME280;7138;49.246;9.100;2023-09-19T04:46:47;98603.06;;;18.12;75.77
14120;BME280;7138;49.246;9.100;2023-09-19T04:49:13;98606.34;;;18.14;75.83
14120;BME280;7138;49.246;9.100;2023-09-19T04:51:39;98608.81;;;18.16;75.64
14120;BME280;7138;49.246;9.100;2023-09-19T04:54:07;98613.47;;;18.20;75.65
14120;BME280;7138;49.246;9.100;2023-09-19T04:56:33;98614.81;;;18.23;75.66
14120;BME280;7138;49.246;9.100;2023-09-19T04:58:59;98616.25;;;18.20;75.60
14120;BME280;7138;49.246;9.100;2023-09-19T05:01:26;98622.91;;;18.19;75.32
14120;BME280;7138;49.246;9.100;2023-09-19T05:03:52;98630.41;;;18.19;75.34
14120;BME280;7138;49.246;9.100;2023-09-19T05:06:18;98625.16;;;18.17;75.49
14120;BME280;7138;49.246;9.100;2023-09-19T05:08:46;98623.44;;;18.21;75.18
14120;BME280;7138;49.246;9.100;2023-09-19T05:11:18;98621.84;;;18.15;75.25
14120;BME280;7138;49.246;9.100;2023-09-19T05:13:45;98631.91;;;18.11;75.02
14120;BME280;7138;49.246;9.100;2023-09-19T05:16:10;98636.13;;;18.09;75.25
14120;BME280;7138;49.246;9.100;2023-09-19T05:18:36;98634.16;;;18.09;75.00
14120;BME280;7138;49.246;9.100;2023-09-19T05:21:02;98642.47;;;18.09;74.92
14120;BME280;7138;49.246;9.100;2023-09-19T05:23:28;98635.34;;;18.03;75.33
14120;BME280;7138;49.246;9.100;2023-09-19T05:25:54;98637.00;;;18.04;75.04
14120;BME280;7138;49.246;9.100;2023-09-19T05:28:23;98635.06;;;18.05;75.30
14120;BME280;7138;49.246;9.100;2023-09-19T05:30:49;98640.22;;;18.11;74.77
14120;BME280;7138;49.246;9.100;2023-09-19T05:33:15;98645.16;;;18.14;74.71
14120;BME280;7138;49.246;9.100;2023-09-19T05:35:41;98634.59;;;18.16;74.65
14120;BME280;7138;49.246;9.100;2023-09-19T05:38:07;98636.78;;;18.19;74.75
14120;BME280;7138;49.246;9.100;2023-09-19T05:40:38;98642.22;;;18.25;74.69
14120;BME280;7138;49.246;9.100;2023-09-19T05:43:08;98644.00;;;18.34;74.56
14120;BME280;7138;49.246;9.100;2023-09-19T05:45:35;98653.75;;;18.32;73.69
14120;BME280;7138;49.246;9.100;2023-09-19T05:48:08;98655.63;;;18.36;74.14
14120;BME280;7138;49.246;9.100;2023-09-19T05:50:35;98664.59;;;18.28;73.49
14120;BME280;7138;49.246;9.100;2023-09-19T05:53:02;98670.75;;;18.25;73.32
14120;BME280;7138;49.246;9.100;2023-09-19T05:55:27;98671.22;;;18.13;73.45
14120;BME280;7138;49.246;9.100;2023-09-19T05:57:54;98670.63;;;18.16;73.47
14120;BME280;7138;49.246;9.100;2023-09-19T06:00:20;98671.38;;;18.22;73.34
14120;BME280;7138;49.246;9.100;2023-09-19T06:02:51;98678.56;;;18.23;72.72
14120;BME280;7138;49.246;9.100;2023-09-19T06:05:17;98685.44;;;18.26;73.25
14120;BME280;7138;49.246;9.100;2023-09-19T06:07:43;98681.94;;;18.20;72.81
14120;BME280;7138;49.246;9.100;2023-09-19T06:10:10;98694.28;;;18.28;73.31
14120;BME280;7138;49.246;9.100;2023-09-19T06:12:38;98683.28;;;18.41;72.64
14120;BME280;7138;49.246;9.100;2023-09-19T06:15:04;98691.69;;;18.50;72.36
14120;BME280;7138;49.246;9.100;2023-09-19T06:17:42;98688.66;;;18.52;72.29
14120;BME280;7138;49.246;9.100;2023-09-19T06:20:09;98687.53;;;18.53;72.34
14120;BME280;7138;49.246;9.100;2023-09-19T06:22:39;98692.25;;;18.52;72.43
14120;BME280;7138;49.246;9.100;2023-09-19T06:25:07;98692.34;;;18.61;72.53
14120;BME280;7138;49.246;9.100;2023-09-19T06:27:33;98686.97;;;18.69;72.53
14120;BME280;7138;49.246;9.100;2023-09-19T06:30:02;98693.47;;;18.78;72.23
14120;BME280;7138;49.246;9.100;2023-09-19T06:32:28;98707.94;;;18.94;72.27
14120;BME280;7138;49.246;9.100;2023-09-19T06:34:54;98707.50;;;19.01;71.90
14120;BME280;7138;49.246;9.100;2023-09-19T06:37:22;98700.75;;;19.07;71.63
14120;BME280;7138;49.246;9.100;2023-09-19T06:39:49;98702.28;;;19.13;71.70
14120;BME280;7138;49.246;9.100;2023-09-19T06:42:16;98709.59;;;19.23;70.91
14120;BME280;7138;49.246;9.100;2023-09-19T06:44:42;98712.19;;;19.33;71.21
14120;BME280;7138;49.246;9.100;2023-09-19T06:47:08;98709.19;;;19.29;70.80
14120;BME280;7138;49.246;9.100;2023-09-19T06:49:35;98712.06;;;19.24;70.65
14120;BME280;7138;49.246;9.100;2023-09-19T06:52:01;98719.50;;;19.29;70.32
14120;BME280;7138;49.246;9.100;2023-09-19T06:54:29;98722.78;;;19.31;70.88
14120;BME280;7138;49.246;9.100;2023-09-19T06:56:56;98713.50;;;19.22;69.98
14120;BME280;7138;49.246;9.100;2023-09-19T06:59:24;98722.97;;;19.21;71.08
14120;BME280;7138;49.246;9.100;2023-09-19T07:01:50;98726.69;;;19.16;69.91
14120;BME280;7138;49.246;9.100;2023-09-19T07:04:16;98728.09;;;19.14;70.89
14120;BME280;7138;49.246;9.100;2023-09-19T07:06:44;98731.50;;;19.24;70.47
14120;BME280;7138;49.246;9.100;2023-09-19T07:09:15;98724.59;;;19.22;69.59
14120;BME280;7138;49.246;9.100;2023-09-19T07:11:43;98722.44;;;19.19;69.86
14120;BME280;7138;49.246;9.100;2023-09-19T07:14:08;98727.91;;;19.24;69.44
14120;BME280;7138;49.246;9.100;2023-09-19T07:16:37;98738.81;;;19.20;69.77
14120;BME280;7138;49.246;9.100;2023-09-19T07:19:04;98740.69;;;19.25;70.08
14120;BME280;7138;49.246;9.100;2023-09-19T07:21:30;98742.50;;;19.16;70.15
14120;BME280;7138;49.246;9.100;2023-09-19T07:24:00;98742.44;;;19.02;69.01
14120;BME280;7138;49.246;9.100;2023-09-19T07:26:26;98756.44;;;18.97;69.72
14120;BME280;7138;49.246;9.100;2023-09-19T07:28:54;98753.84;;;19.00;69.43
14120;BME280;7138;49.246;9.100;2023-09-19T07:31:21;98756.94;;;18.99;68.98
14120;BME280;7138;49.246;9.100;2023-09-19T07:33:48;98769.31;;;19.06;69.42
14120;BME280;7138;49.246;9.100;2023-09-19T07:36:14;98774.09;;;19.01;68.62
14120;BME280;7138;49.246;9.100;2023-09-19T07:38:42;98773.41;;;19.09;69.32
14120;BME280;7138;49.246;9.100;2023-09-19T07:41:08;98780.53;;;19.15;69.32
14120;BME280;7138;49.246;9.100;2023-09-19T07:43:35;98785.69;;;19.22;69.15
14120;BME280;7138;49.246;9.100;2023-09-19T07:46:05;98783.97;;;19.26;68.44
14120;BME280;7138;49.246;9.100;2023-09-19T07:48:32;98785.31;;;19.28;67.65
14120;BME280;7138;49.246;9.100;2023-09-19T07:51:02;98781.38;;;19.29;68.17
14120;BME280;7138;49.246;9.100;2023-09-19T07:53:29;98783.06;;;19.44;66.78
14120;BME280;7138;49.246;9.100;2023-09-19T07:56:02;98788.69;;;19.58;67.39
14120;BME280;7138;49.246;9.100;2023-09-19T07:58:29;98791.78;;;19.70;66.92
14120;BME280;7138;49.246;9.100;2023-09-19T08:00:55;98792.47;;;19.76;65.44
14120;BME280;7138;49.246;9.100;2023-09-19T08:03:22;98786.41;;;19.87;65.80
14120;BME280;7138;49.246;9.100;2023-09-19T08:05:48;98789.28;;;19.96;65.04
14120;BME280;7138;49.246;9.100;2023-09-19T08:08:14;98792.06;;;19.96;63.69
14120;BME280;7138;49.246;9.100;2023-09-19T08:10:40;98796.91;;;20.04;65.25
14120;BME280;7138;49.246;9.100;2023-09-19T08:13:08;98801.03;;;20.20;64.81
14120;BME280;7138;49.246;9.100;2023-09-19T08:15:43;98796.25;;;20.35;63.58
14120;BME280;7138;49.246;9.100;2023-09-19T08:18:10;98807.19;;;20.31;62.97
14120;BME280;7138;49.246;9.100;2023-09-19T08:20:40;98819.00;;;20.37;61.87
14120;BME280;7138;49.246;9.100;2023-09-19T08:23:09;98815.22;;;20.46;62.09
14120;BME280;7138;49.246;9.100;2023-09-19T08:25:35;98813.66;;;20.54;61.71
14120;BME280;7138;49.246;9.100;2023-09-19T08:28:01;98816.94;;;20.56;61.10
14120;BME280;7138;49.246;9.100;2023-09-19T08:30:29;98821.88;;;20.59;60.76
14120;BME280;7138;49.246;9.100;2023-09-19T08:32:57;98823.19;;;20.62;58.47
14120;BME280;7138;49.246;9.100;2023-09-19T08:35:24;98816.50;;;20.63;58.87
14120;BME280;7138;49.246;9.100;2023-09-19T08:37:51;98820.03;;;20.55;57.84
14120;BME280;7138;49.246;9.100;2023-09-19T08:40:17;98829.81;;;20.52;58.50
14120;BME280;7138;49.246;9.100;2023-09-19T08:42:50;98817.94;;;20.60;60.12
14120;BME280;7138;49.246;9.100;2023-09-19T08:45:17;98830.50;;;20.71;59.81
14120;BME280;7138;49.246;9.100;2023-09-19T08:47:47;98823.09;;;20.67;57.71
14120;BME280;7138;49.246;9.100;2023-09-19T08:50:25;98830.00;;;20.69;57.95
14120;BME280;7138;49.246;9.100;2023-09-19T08:52:58;98832.97;;;20.73;59.14
14120;BME280;7138;49.246;9.100;2023-09-19T08:55:28;98834.88;;;20.64;58.07
14120;BME280;7138;49.246;9.100;2023-09-19T08:58:02;98834.97;;;20.59;58.25
14120;BME280;7138;49.246;9.100;2023-09-19T09:00:30;98835.16;;;20.62;58.30
14120;BME280;7138;49.246;9.100;2023-09-19T09:02:57;98844.03;;;20.64;58.73
14120;BME280;7138;49.246;9.100;2023-09-19T09:05:27;98835.78;;;20.59;57.70
14120;BME280;7138;49.246;9.100;2023-09-19T09:07:56;98837.69;;;20.72;58.93
14120;BME280;7138;49.246;9.100;2023-09-19T09:10:23;98832.72;;;20.83;58.59
14120;BME280;7138;49.246;9.100;2023-09-19T09:12:51;98844.00;;;20.78;57.32
14120;BME280;7138;49.246;9.100;2023-09-19T09:15:19;98834.91;;;20.72;56.56
14120;BME280;7138;49.246;9.100;2023-09-19T09:17:47;98839.59;;;20.63;55.10
14120;BME280;7138;49.246;9.100;2023-09-19T09:20:14;98839.75;;;20.80;57.44
14120;BME280;7138;49.246;9.100;2023-09-19T09:22:51;98838.94;;;20.80;54.61
14120;BME280;7138;49.246;9.100;2023-09-19T09:25:20;98831.63;;;20.70;55.55
14120;BME280;7138;49.246;9.100;2023-09-19T09:28:02;98844.41;;;20.71;55.65
14120;BME280;7138;49.246;9.100;2023-09-19T09:30:37;98839.56;;;20.77;55.96
14120;BME280;7138;49.246;9.100;2023-09-19T09:33:10;98843.81;;;20.74;56.25
14120;BME280;7138;49.246;9.100;2023-09-19T09:35:37;98834.22;;;20.67;54.32
14120;BME280;7138;49.246;9.100;2023-09-19T09:38:06;98849.47;;;20.69;55.37
14120;BME280;7138;49.246;9.100;2023-09-19T09:40:51;98846.00;;;20.64;54.61
14120;BME280;7138;49.246;9.100;2023-09-19T09:43:28;98847.09;;;20.63;55.57
14120;BME280;7138;49.246;9.100;2023-09-19T09:46:11;98841.31;;;20.73;57.26
14120;BME280;7138;49.246;9.100;2023-09-19T09:49:00;98835.81;;;20.82;56.61
14120;BME280;7138;49.246;9.100;2023-09-19T09:51:47;98837.53;;;20.91;55.71
14120;BME280;7138;49.246;9.100;2023-09-19T09:54:23;98830.91;;;21.01;56.88
14120;BME280;7138;49.246;9.100;2023-09-19T09:56:56;98841.63;;;21.07;54.30
14120;BME280;7138;49.246;9.100;2023-09-19T09:59:47;98827.44;;;21.18;54.05
14120;BME280;7138;49.246;9.100;2023-09-19T10:02:14;98843.50;;;21.21;54.59
14120;BME280;7138;49.246;9.100;2023-09-19T10:04:39;98827.50;;;21.26;54.51
14120;BME280;7138;49.246;9.100;2023-09-19T10:07:28;98831.50;;;21.34;54.01
14120;BME280;7138;49.246;9.100;2023-09-19T10:10:02;98826.50;;;21.45;55.03
14120;BME280;7138;49.246;9.100;2023-09-19T10:12:52;98821.53;;;21.64;52.82
14120;BME280;7138;49.246;9.100;2023-09-19T10:15:26;98829.72;;;21.69;53.16
14120;BME280;7138;49.246;9.100;2023-09-19T10:17:53;98833.72;;;21.77;53.65
14120;BME280;7138;49.246;9.100;2023-09-19T10:20:25;98827.84;;;21.87;52.91
14120;BME280;7138;49.246;9.100;2023-09-19T10:23:00;98830.00;;;21.90;52.83
14120;BME280;7138;49.246;9.100;2023-09-19T10:25:27;98838.72;;;21.97;53.54
14120;BME280;7138;49.246;9.100;2023-09-19T10:28:00;98833.16;;;21.97;52.46
14120;BME280;7138;49.246;9.100;2023-09-19T10:30:31;98833.09;;;21.88;50.37
14120;BME280;7138;49.246;9.100;2023-09-19T10:33:02;98829.34;;;21.84;49.85
14120;BME280;7138;49.246;9.100;2023-09-19T10:35:28;98834.25;;;21.87;50.36
14120;BME280;7138;49.246;9.100;2023-09-19T10:37:57;98827.09;;;21.95;50.44
14120;BME280;7138;49.246;9.100;2023-09-19T10:40:27;98825.03;;;22.09;50.48
14120;BME280;7138;49.246;9.100;2023-09-19T10:43:01;98830.50;;;22.32;51.27
14120;BME280;7138;49.246;9.100;2023-09-19T10:45:32;98822.50;;;22.47;49.29
14120;BME280;7138;49.246;9.100;2023-09-19T10:47:58;98832.84;;;22.64;48.78
14120;BME280;7138;49.246;9.100;2023-09-19T10:50:29;98819.41;;;22.75;48.09
14120;BME280;7138;49.246;9.100;2023-09-19T10:53:02;98816.50;;;22.89;47.20
14120;BME280;7138;49.246;9.100;2023-09-19T10:55:32;98819.31;;;22.97;46.95
14120;BME280;7138;49.246;9.100;2023-09-19T10:58:03;98818.78;;;23.04;46.61
14120;BME280;7138;49.246;9.100;2023-09-19T11:00:53;98812.38;;;23.12;46.43
14120;BME280;7138;49.246;9.100;2023-09-19T11:03:20;98825.88;;;23.10;45.06
14120;BME280;7138;49.246;9.100;2023-09-19T11:06:08;98821.09;;;23.11;44.17
14120;BME280;7138;49.246;9.100;2023-09-19T11:09:08;98824.41;;;22.87;44.09
14120;BME280;7138;49.246;9.100;2023-09-19T11:11:42;98819.22;;;22.63;43.95
14120;BME280;7138;49.246;9.100;2023-09-19T11:14:38;98815.09;;;22.34;44.80
14120;BME280;7138;49.246;9.100;2023-09-19T11:17:41;98815.72;;;22.22;45.49
14120;BME280;7138;49.246;9.100;2023-09-19T11:20:24;98811.28;;;22.13;45.52
14120;BME280;7138;49.246;9.100;2023-09-19T11:23:22;98811.59;;;22.20;44.95
14120;BME280;7138;49.246;9.100;2023-09-19T11:25:49;98797.00;;;22.14;46.02
14120;BME280;7138;49.246;9.100;2023-09-19T11:28:34;98797.19;;;22.27;47.11
14120;BME280;7138;49.246;9.100;2023-09-19T11:31:51;98815.59;;;22.36;47.08
14120;BME280;7138;49.246;9.100;2023-09-19T11:34:46;98800.97;;;22.39;46.24
14120;BME280;7138;49.246;9.100;2023-09-19T11:37:59;98794.44;;;22.44;45.20
14120;BME280;7138;49.246;9.100;2023-09-19T11:40:25;98801.66;;;22.45;46.15
14120;BME280;7138;49.246;9.100;2023-09-19T11:42:53;98801.50;;;22.50;44.74
14120;BME280;7138;49.246;9.100;2023-09-19T11:46:04;98793.78;;;22.47;44.47
14120;BME280;7138;49.246;9.100;2023-09-19T11:48:32;98802.16;;;22.47;44.80
14120;BME280;7138;49.246;9.100;2023-09-19T11:50:58;98795.25;;;22.44;44.81
14120;BME280;7138;49.246;9.100;2023-09-19T11:53:31;98804.97;;;22.56;44.97
14120;BME280;7138;49.246;9.100;2023-09-19T11:55:59;98790.34;;;22.59;44.97
14120;BME280;7138;49.246;9.100;2023-09-19T11:58:26;98790.03;;;22.69;46.13
14120;BME280;7138;49.246;9.100;2023-09-19T12:00:54;98794.78;;;22.68;46.64
14120;BME280;7138;49.246;9.100;2023-09-19T12:03:29;98788.41;;;22.85;46.79
14120;BME280;7138;49.246;9.100;2023-09-19T12:05:58;98793.00;;;22.98;46.23
14120;BME280;7138;49.246;9.100;2023-09-19T12:08:24;98789.38;;;23.06;46.26
14120;BME280;7138;49.246;9.100;2023-09-19T12:10:53;98787.25;;;22.95;45.20
14120;BME280;7138;49.246;9.100;2023-09-19T12:13:21;98789.88;;;23.00;46.23
14120;BME280;7138;49.246;9.100;2023-09-19T12:15:47;98772.94;;;22.96;45.45
14120;BME280;7138;49.246;9.100;2023-09-19T12:18:30;98782.31;;;23.09;44.80
14120;BME280;7138;49.246;9.100;2023-09-19T12:20:58;98776.06;;;23.03;43.26
14120;BME280;7138;49.246;9.100;2023-09-19T12:23:24;98772.59;;;23.06;42.86
14120;BME280;7138;49.246;9.100;2023-09-19T12:25:54;98775.91;;;23.00;44.58
14120;BME280;7138;49.246;9.100;2023-09-19T12:28:26;98771.50;;;22.99;45.16
14120;BME280;7138;49.246;9.100;2023-09-19T12:30:53;98774.09;;;23.04;44.69
14120;BME280;7138;49.246;9.100;2023-09-19T12:33:21;98772.94;;;23.05;43.87
14120;BME280;7138;49.246;9.100;2023-09-19T12:35:51;98763.75;;;23.04;43.81
14120;BME280;7138;49.246;9.100;2023-09-19T12:38:25;98760.31;;;23.07;45.44
14120;BME280;7138;49.246;9.100;2023-09-19T12:40:51;98762.09;;;23.21;45.48
14120;BME280;7138;49.246;9.100;2023-09-19T12:43:18;98751.19;;;23.36;44.21
14120;BME280;7138;49.246;9.100;2023-09-19T12:45:44;98752.47;;;23.39;43.42
14120;BME280;7138;49.246;9.100;2023-09-19T12:48:24;98755.78;;;23.41;43.40
14120;BME280;7138;49.246;9.100;2023-09-19T12:51:01;98748.00;;;23.55;44.45
14120;BME280;7138;49.246;9.100;2023-09-19T12:53:38;98746.72;;;23.53;42.51
14120;BME280;7138;49.246;9.100;2023-09-19T12:56:13;98738.97;;;23.50;42.14
14120;BME280;7138;49.246;9.100;2023-09-19T12:58:51;98734.06;;;23.47;42.79
14120;BME280;7138;49.246;9.100;2023-09-19T13:01:20;98746.38;;;23.54;43.76
14120;BME280;7138;49.246;9.100;2023-09-19T13:04:15;98746.72;;;23.61;43.67
14120;BME280;7138;49.246;9.100;2023-09-19T13:06:45;98733.38;;;23.58;42.26
14120;BME280;7138;49.246;9.100;2023-09-19T13:09:17;98751.97;;;23.46;41.72
14120;BME280;7138;49.246;9.100;2023-09-19T13:11:44;98745.88;;;23.52;43.21
14120;BME280;7138;49.246;9.100;2023-09-19T13:14:19;98741.13;;;23.53;42.69
14120;BME280;7138;49.246;9.100;2023-09-19T13:17:00;98748.63;;;23.70;43.60
14120;BME280;7138;49.246;9.100;2023-09-19T13:19:41;98745.50;;;23.71;42.75
14120;BME280;7138;49.246;9.100;2023-09-19T13:22:39;98735.91;;;23.81;42.42
14120;BME280;7138;49.246;9.100;2023-09-19T13:25:09;98739.53;;;23.81;41.33
14120;BME280;7138;49.246;9.100;2023-09-19T13:27:41;98743.66;;;23.84;43.19